sensor_id;sensor_type;location;lat;lon;timestamp;P1;durP1;ratioP1;P2;durP2;ratioP2
35312;SDS011;21425;50.454;30.466;2023-06-26T00:00:05;20.98;;;12.38;;
35312;SDS011;21425;50.454;30.466;2023-06-26T00:02:31;19.55;;;12.27;;
35312;SDS011;21425;50.454;30.466;2023-06-26T00:04:57;18.77;;;13.25;;
35312;SDS011;21425;50.454;30.466;2023-06-26T00:07:23;21.70;;;12.65;;
35312;SDS011;21425;50.454;30.466;2023-06-26T00:09:49;19.42;;;11.93;;
35312;SDS011;21425;50.454;30.466;2023-06-26T00:12:15;25.70;;;13.73;;
35312;SDS011;21425;50.454;30.466;2023-06-26T00:14:41;18.83;;;12.65;;
35312;SDS011;21425;50.454;30.466;2023-06-26T00:17:07;18.55;;;12.32;;
35312;SDS011;21425;50.454;30.466;2023-06-26T00:19:32;19.70;;;13.27;;
35312;SDS011;21425;50.454;30.466;2023-06-26T00:21:58;20.25;;;12.77;;
35312;SDS011;21425;50.454;30.466;2023-06-26T00:24:24;23.40;;;15.02;;
35312;SDS011;21425;50.454;30.466;2023-06-26T00:26:50;26.55;;;15.65;;
35312;SDS011;21425;50.454;30.466;2023-06-26T00:29:16;20.83;;;14.43;;
35312;SDS011;21425;50.454;30.466;2023-06-26T00:31:42;27.65;;;15.43;;
35312;SDS011;21425;50.454;30.466;2023-06-26T00:34:07;21.58;;;15.05;;
35312;SDS011;21425;50.454;30.466;2023-06-26T00:36:33;26.15;;;15.30;;
35312;SDS011;21425;50.454;30.466;2023-06-26T00:38:59;24.92;;;14.27;;
35312;SDS011;21425;50.454;30.466;2023-06-26T00:41:25;24.58;;;14.73;;
35312;SDS011;21425;50.454;30.466;2023-06-26T00:43:51;25.00;;;14.48;;
35312;SDS011;21425;50.454;30.466;2023-06-26T00:46:17;25.35;;;15.85;;
35312;SDS011;21425;50.454;30.466;2023-06-26T00:48:43;22.80;;;15.07;;
35312;SDS011;21425;50.454;30.466;2023-06-26T00:51:09;25.17;;;14.85;;
35312;SDS011;21425;50.454;30.466;2023-06-26T00:53:36;25.65;;;16.13;;
35312;SDS011;21425;50.454;30.466;2023-06-26T00:56:02;24.52;;;14.40;;
35312;SDS011;21425;50.454;30.466;2023-06-26T00:58:28;20.52;;;13.20;;
35312;SDS011;21425;50.454;30.466;2023-06-26T01:00:54;19.88;;;14.10;;
35312;SDS011;21425;50.454;30.466;2023-06-26T01:03:22;27.25;;;14.95;;
35312;SDS011;21425;50.454;30.466;2023-06-26T01:05:49;24.05;;;14.43;;
35312;SDS011;21425;50.454;30.466;2023-06-26T01:08:17;24.30;;;14.50;;
35312;SDS011;21425;50.454;30.466;2023-06-26T01:10:43;26.88;;;14.52;;
35312;SDS011;21425;50.454;30.466;2023-06-26T01:13:09;24.60;;;15.23;;
35312;SDS011;21425;50.454;30.466;2023-06-26T01:15:35;22.92;;;14.18;;
35312;SDS011;21425;50.454;30.466;2023-06-26T01:18:01;24.48;;;14.88;;
35312;SDS011;21425;50.454;30.466;2023-06-26T01:20:30;22.52;;;15.77;;
35312;SDS011;21425;50.454;30.466;2023-06-26T01:25:34;26.65;;;15.98;;
35312;SDS011;21425;50.454;30.466;2023-06-26T01:28:21;23.30;;;14.43;;
35312;SDS011;21425;50.454;30.466;2023-06-26T01:30:48;22.55;;;14.43;;
35312;SDS011;21425;50.454;30.466;2023-06-26T01:33:16;23.50;;;15.38;;
35312;SDS011;21425;50.454;30.466;2023-06-26T01:35:42;21.83;;;12.63;;
35312;SDS011;21425;50.454;30.466;2023-06-26T01:38:18;21.45;;;12.90;;
35312;SDS011;21425;50.454;30.466;2023-06-26T01:40:45;20.13;;;12.48;;
35312;SDS011;21425;50.454;30.466;2023-06-26T01:43:15;18.02;;;12.20;;
35312;SDS011;21425;50.454;30.466;2023-06-26T01:45:45;14.95;;;10.98;;
35312;SDS011;21425;50.454;30.466;2023-06-26T01:48:15;22.15;;;10.75;;
35312;SDS011;21425;50.454;30.466;2023-06-26T01:50:42;17.67;;;10.32;;
35312;SDS011;21425;50.454;30.466;2023-06-26T01:53:12;15.57;;;9.32;;
35312;SDS011;21425;50.454;30.466;2023-06-26T01:58:11;11.75;;;7.78;;
35312;SDS011;21425;50.454;30.466;2023-06-26T02:00:39;11.20;;;7.95;;
35312;SDS011;21425;50.454;30.466;2023-06-26T02:03:05;13.40;;;8.48;;
35312;SDS011;21425;50.454;30.466;2023-06-26T02:05:32;11.13;;;7.93;;
35312;SDS011;21425;50.454;30.466;2023-06-26T02:07:58;13.82;;;8.38;;
35312;SDS011;21425;50.454;30.466;2023-06-26T02:10:26;14.77;;;8.90;;
35312;SDS011;21425;50.454;30.466;2023-06-26T02:12:51;14.63;;;8.85;;
35312;SDS011;21425;50.454;30.466;2023-06-26T02:15:17;12.52;;;7.93;;
35312;SDS011;21425;50.454;30.466;2023-06-26T02:17:43;12.55;;;8.57;;
35312;SDS011;21425;50.454;30.466;2023-06-26T02:20:13;14.55;;;8.23;;
35312;SDS011;21425;50.454;30.466;2023-06-26T02:22:39;14.80;;;9.40;;
35312;SDS011;21425;50.454;30.466;2023-06-26T02:25:05;13.07;;;8.38;;
35312;SDS011;21425;50.454;30.466;2023-06-26T02:27:31;13.48;;;8.88;;
35312;SDS011;21425;50.454;30.466;2023-06-26T02:29:57;14.23;;;9.05;;
35312;SDS011;21425;50.454;30.466;2023-06-26T02:32:22;12.55;;;8.55;;
35312;SDS011;21425;50.454;30.466;2023-06-26T02:34:48;11.55;;;7.97;;
35312;SDS011;21425;50.454;30.466;2023-06-26T02:37:16;10.27;;;7.10;;
35312;SDS011;21425;50.454;30.466;2023-06-26T02:39:42;10.20;;;7.45;;
35312;SDS011;21425;50.454;30.466;2023-06-26T02:42:08;13.90;;;8.05;;
35312;SDS011;21425;50.454;30.466;2023-06-26T02:44:34;11.23;;;7.60;;
35312;SDS011;21425;50.454;30.466;2023-06-26T02:47:00;10.93;;;6.88;;
35312;SDS011;21425;50.454;30.466;2023-06-26T02:49:26;11.35;;;7.22;;
35312;SDS011;21425;50.454;30.466;2023-06-26T02:51:52;10.45;;;6.85;;
35312;SDS011;21425;50.454;30.466;2023-06-26T02:54:18;11.25;;;6.88;;
35312;SDS011;21425;50.454;30.466;2023-06-26T02:56:44;9.85;;;6.18;;
35312;SDS011;21425;50.454;30.466;2023-06-26T02:59:10;11.32;;;6.60;;
35312;SDS011;21425;50.454;30.466;2023-06-26T03:01:36;11.55;;;7.80;;
35312;SDS011;21425;50.454;30.466;2023-06-26T03:04:01;11.63;;;7.50;;
35312;SDS011;21425;50.454;30.466;2023-06-26T03:06:27;11.57;;;6.53;;
35312;SDS011;21425;50.454;30.466;2023-06-26T03:08:53;13.00;;;7.25;;
35312;SDS011;21425;50.454;30.466;2023-06-26T03:11:19;11.35;;;6.82;;
35312;SDS011;21425;50.454;30.466;2023-06-26T03:13:45;11.68;;;7.50;;
35312;SDS011;21425;50.454;30.466;2023-06-26T03:16:11;13.82;;;7.28;;
35312;SDS011;21425;50.454;30.466;2023-06-26T03:18:37;11.88;;;7.82;;
35312;SDS011;21425;50.454;30.466;2023-06-26T03:21:03;12.38;;;7.95;;
35312;SDS011;21425;50.454;30.466;2023-06-26T03:23:29;12.02;;;7.60;;
35312;SDS011;21425;50.454;30.466;2023-06-26T03:25:55;13.07;;;7.93;;
35312;SDS011;21425;50.454;30.466;2023-06-26T03:28:21;12.15;;;7.88;;
35312;SDS011;21425;50.454;30.466;2023-06-26T03:30:46;13.70;;;9.07;;
35312;SDS011;21425;50.454;30.466;2023-06-26T03:33:12;11.38;;;7.55;;
35312;SDS011;21425;50.454;30.466;2023-06-26T03:35:38;13.43;;;8.13;;
35312;SDS011;21425;50.454;30.466;2023-06-26T03:38:04;12.55;;;8.02;;
35312;SDS011;21425;50.454;30.466;2023-06-26T03:40:30;12.85;;;7.53;;
35312;SDS011;21425;50.454;30.466;2023-06-26T03:42:56;13.10;;;7.50;;
35312;SDS011;21425;50.454;30.466;2023-06-26T03:45:22;12.13;;;7.75;;
35312;SDS011;21425;50.454;30.466;2023-06-26T03:47:48;13.73;;;7.93;;
35312;SDS011;21425;50.454;30.466;2023-06-26T03:50:15;12.48;;;8.43;;
35312;SDS011;21425;50.454;30.466;2023-06-26T03:52:41;10.65;;;7.00;;
35312;SDS011;21425;50.454;30.466;2023-06-26T03:55:07;11.30;;;7.90;;
35312;SDS011;21425;50.454;30.466;2023-06-26T03:57:33;10.98;;;7.97;;
35312;SDS011;21425;50.454;30.466;2023-06-26T03:59:59;12.75;;;8.75;;
35312;SDS011;21425;50.454;30.466;2023-06-26T04:02:26;12.65;;;7.85;;
35312;SDS011;21425;50.454;30.466;2023-06-26T04:04:52;12.68;;;8.60;;
35312;SDS011;21425;50.454;30.466;2023-06-26T04:07:18;13.00;;;7.82;;
35312;SDS011;21425;50.454;30.466;2023-06-26T04:09:44;13.23;;;8.40;;
35312;SDS011;21425;50.454;30.466;2023-06-26T04:12:10;13.98;;;8.65;;
35312;SDS011;21425;50.454;30.466;2023-06-26T04:14:35;11.98;;;8.32;;
35312;SDS011;21425;50.454;30.466;2023-06-26T04:17:01;18.60;;;8.40;;
35312;SDS011;21425;50.454;30.466;2023-06-26T04:19:28;14.20;;;8.65;;
35312;SDS011;21425;50.454;30.466;2023-06-26T04:21:55;13.18;;;8.35;;
35312;SDS011;21425;50.454;30.466;2023-06-26T04:24:21;12.90;;;8.35;;
35312;SDS011;21425;50.454;30.466;2023-06-26T04:26:47;15.27;;;8.30;;
35312;SDS011;21425;50.454;30.466;2023-06-26T04:29:13;11.23;;;8.07;;
35312;SDS011;21425;50.454;30.466;2023-06-26T04:31:39;11.57;;;7.93;;
35312;SDS011;21425;50.454;30.466;2023-06-26T04:34:05;14.02;;;8.27;;
35312;SDS011;21425;50.454;30.466;2023-06-26T04:36:31;10.48;;;6.68;;
35312;SDS011;21425;50.454;30.466;2023-06-26T04:38:58;10.25;;;6.32;;
35312;SDS011;21425;50.454;30.466;2023-06-26T04:41:24;11.43;;;7.85;;
35312;SDS011;21425;50.454;30.466;2023-06-26T04:43:50;11.57;;;7.95;;
35312;SDS011;21425;50.454;30.466;2023-06-26T04:46:16;12.07;;;7.90;;
35312;SDS011;21425;50.454;30.466;2023-06-26T04:48:42;9.77;;;6.72;;
35312;SDS011;21425;50.454;30.466;2023-06-26T04:51:09;10.02;;;7.28;;
35312;SDS011;21425;50.454;30.466;2023-06-26T04:53:35;11.82;;;8.13;;
35312;SDS011;21425;50.454;30.466;2023-06-26T04:56:02;12.10;;;7.70;;
35312;SDS011;21425;50.454;30.466;2023-06-26T04:58:28;10.10;;;7.38;;
35312;SDS011;21425;50.454;30.466;2023-06-26T05:00:54;13.57;;;6.85;;
35312;SDS011;21425;50.454;30.466;2023-06-26T05:03:20;13.15;;;7.68;;
35312;SDS011;21425;50.454;30.466;2023-06-26T05:05:46;14.45;;;8.25;;
35312;SDS011;21425;50.454;30.466;2023-06-26T05:08:17;12.40;;;8.05;;
35312;SDS011;21425;50.454;30.466;2023-06-26T05:10:42;11.15;;;7.38;;
35312;SDS011;21425;50.454;30.466;2023-06-26T05:13:09;12.95;;;6.70;;
35312;SDS011;21425;50.454;30.466;2023-06-26T05:15:35;10.20;;;7.32;;
35312;SDS011;21425;50.454;30.466;2023-06-26T05:18:00;12.77;;;7.28;;
35312;SDS011;21425;50.454;30.466;2023-06-26T05:20:26;11.95;;;7.28;;
35312;SDS011;21425;50.454;30.466;2023-06-26T05:22:52;10.65;;;8.13;;
35312;SDS011;21425;50.454;30.466;2023-06-26T05:25:19;11.63;;;7.70;;
35312;SDS011;21425;50.454;30.466;2023-06-26T05:27:46;11.95;;;8.38;;
35312;SDS011;21425;50.454;30.466;2023-06-26T05:30:14;10.50;;;7.20;;
35312;SDS011;21425;50.454;30.466;2023-06-26T05:32:40;12.50;;;7.80;;
35312;SDS011;21425;50.454;30.466;2023-06-26T05:35:07;9.05;;;5.95;;
35312;SDS011;21425;50.454;30.466;2023-06-26T05:37:33;16.38;;;7.75;;
35312;SDS011;21425;50.454;30.466;2023-06-26T05:39:59;12.27;;;7.80;;
35312;SDS011;21425;50.454;30.466;2023-06-26T05:42:26;9.82;;;6.97;;
35312;SDS011;21425;50.454;30.466;2023-06-26T05:44:53;12.27;;;7.35;;
35312;SDS011;21425;50.454;30.466;2023-06-26T05:47:18;12.32;;;6.47;;
35312;SDS011;21425;50.454;30.466;2023-06-26T05:49:44;8.25;;;6.05;;
35312;SDS011;21425;50.454;30.466;2023-06-26T05:52:10;12.75;;;7.53;;
35312;SDS011;21425;50.454;30.466;2023-06-26T05:54:36;10.18;;;8.10;;
35312;SDS011;21425;50.454;30.466;2023-06-26T05:57:02;12.32;;;7.45;;
35312;SDS011;21425;50.454;30.466;2023-06-26T05:59:30;11.70;;;7.43;;
35312;SDS011;21425;50.454;30.466;2023-06-26T06:01:57;10.10;;;6.80;;
35312;SDS011;21425;50.454;30.466;2023-06-26T06:04:23;10.73;;;6.80;;
35312;SDS011;21425;50.454;30.466;2023-06-26T06:06:48;10.15;;;6.90;;
35312;SDS011;21425;50.454;30.466;2023-06-26T06:09:14;8.98;;;6.50;;
35312;SDS011;21425;50.454;30.466;2023-06-26T06:11:41;10.68;;;5.30;;
35312;SDS011;21425;50.454;30.466;2023-06-26T06:14:06;9.18;;;6.63;;
35312;SDS011;21425;50.454;30.466;2023-06-26T06:16:32;11.40;;;5.95;;
35312;SDS011;21425;50.454;30.466;2023-06-26T06:18:58;11.15;;;5.93;;
35312;SDS011;21425;50.454;30.466;2023-06-26T06:21:24;8.07;;;5.32;;
35312;SDS011;21425;50.454;30.466;2023-06-26T06:23:50;9.35;;;5.13;;
35312;SDS011;21425;50.454;30.466;2023-06-26T06:26:16;5.90;;;4.13;;
35312;SDS011;21425;50.454;30.466;2023-06-26T06:28:42;6.45;;;4.25;;
35312;SDS011;21425;50.454;30.466;2023-06-26T06:31:08;5.80;;;4.10;;
35312;SDS011;21425;50.454;30.466;2023-06-26T06:33:34;5.68;;;4.15;;
35312;SDS011;21425;50.454;30.466;2023-06-26T06:35:59;6.97;;;4.22;;
35312;SDS011;21425;50.454;30.466;2023-06-26T06:38:25;6.97;;;4.35;;
35312;SDS011;21425;50.454;30.466;2023-06-26T06:40:51;7.55;;;4.53;;
35312;SDS011;21425;50.454;30.466;2023-06-26T06:43:17;7.30;;;4.28;;
35312;SDS011;21425;50.454;30.466;2023-06-26T06:45:43;8.05;;;5.03;;
35312;SDS011;21425;50.454;30.466;2023-06-26T06:48:09;9.73;;;4.70;;
35312;SDS011;21425;50.454;30.466;2023-06-26T06:50:35;8.85;;;5.05;;
35312;SDS011;21425;50.454;30.466;2023-06-26T06:53:01;8.15;;;4.35;;
35312;SDS011;21425;50.454;30.466;2023-06-26T06:55:27;6.47;;;4.40;;
35312;SDS011;21425;50.454;30.466;2023-06-26T06:57:53;5.97;;;4.10;;
35312;SDS011;21425;50.454;30.466;2023-06-26T07:00:19;5.25;;;3.60;;
35312;SDS011;21425;50.454;30.466;2023-06-26T07:02:45;7.00;;;3.70;;
35312;SDS011;21425;50.454;30.466;2023-06-26T07:05:11;6.50;;;3.78;;
35312;SDS011;21425;50.454;30.466;2023-06-26T07:07:37;7.82;;;4.72;;
35312;SDS011;21425;50.454;30.466;2023-06-26T07:10:04;5.93;;;4.53;;
35312;SDS011;21425;50.454;30.466;2023-06-26T07:12:34;6.47;;;4.20;;
35312;SDS011;21425;50.454;30.466;2023-06-26T07:15:01;6.88;;;4.53;;
35312;SDS011;21425;50.454;30.466;2023-06-26T07:17:27;6.63;;;4.63;;
35312;SDS011;21425;50.454;30.466;2023-06-26T07:19:53;6.05;;;4.10;;
35312;SDS011;21425;50.454;30.466;2023-06-26T07:22:19;6.75;;;4.43;;
35312;SDS011;21425;50.454;30.466;2023-06-26T07:24:46;6.05;;;4.15;;
35312;SDS011;21425;50.454;30.466;2023-06-26T07:27:13;5.82;;;3.38;;
35312;SDS011;21425;50.454;30.466;2023-06-26T07:29:39;4.95;;;3.17;;
35312;SDS011;21425;50.454;30.466;2023-06-26T07:32:05;5.10;;;3.40;;
35312;SDS011;21425;50.454;30.466;2023-06-26T07:34:30;5.50;;;2.83;;
35312;SDS011;21425;50.454;30.466;2023-06-26T07:36:56;4.18;;;2.80;;
35312;SDS011;21425;50.454;30.466;2023-06-26T07:39:22;4.93;;;3.30;;
35312;SDS011;21425;50.454;30.466;2023-06-26T07:41:48;5.85;;;2.88;;
35312;SDS011;21425;50.454;30.466;2023-06-26T07:44:13;5.95;;;3.15;;
35312;SDS011;21425;50.454;30.466;2023-06-26T07:46:39;4.57;;;3.40;;
35312;SDS011;21425;50.454;30.466;2023-06-26T07:49:05;5.57;;;3.40;;
35312;SDS011;21425;50.454;30.466;2023-06-26T07:51:31;4.72;;;3.58;;
35312;SDS011;21425;50.454;30.466;2023-06-26T07:53:57;5.25;;;3.28;;
35312;SDS011;21425;50.454;30.466;2023-06-26T07:56:23;4.40;;;3.05;;
35312;SDS011;21425;50.454;30.466;2023-06-26T07:58:49;4.72;;;3.05;;
35312;SDS011;21425;50.454;30.466;2023-06-26T08:01:15;3.95;;;2.95;;
35312;SDS011;21425;50.454;30.466;2023-06-26T08:03:41;5.25;;;3.58;;
35312;SDS011;21425;50.454;30.466;2023-06-26T08:06:07;6.85;;;3.67;;
35312;SDS011;21425;50.454;30.466;2023-06-26T08:08:32;6.05;;;3.92;;
35312;SDS011;21425;50.454;30.466;2023-06-26T08:10:58;6.15;;;3.83;;
35312;SDS011;21425;50.454;30.466;2023-06-26T08:13:25;4.10;;;3.28;;
35312;SDS011;21425;50.454;30.466;2023-06-26T08:15:51;11.23;;;3.85;;
35312;SDS011;21425;50.454;30.466;2023-06-26T08:18:17;5.55;;;3.60;;
35312;SDS011;21425;50.454;30.466;2023-06-26T08:20:43;4.85;;;3.53;;
35312;SDS011;21425;50.454;30.466;2023-06-26T08:23:09;4.50;;;3.55;;
35312;SDS011;21425;50.454;30.466;2023-06-26T08:25:35;4.35;;;3.03;;
35312;SDS011;21425;50.454;30.466;2023-06-26T08:28:01;4.38;;;3.00;;
35312;SDS011;21425;50.454;30.466;2023-06-26T08:30:27;4.68;;;2.70;;
35312;SDS011;21425;50.454;30.466;2023-06-26T08:32:56;3.17;;;2.45;;
35312;SDS011;21425;50.454;30.466;2023-06-26T08:35:22;4.72;;;2.67;;
35312;SDS011;21425;50.454;30.466;2023-06-26T08:37:47;4.03;;;2.70;;
35312;SDS011;21425;50.454;30.466;2023-06-26T08:40:16;3.65;;;2.47;;
35312;SDS011;21425;50.454;30.466;2023-06-26T08:42:43;4.18;;;1.92;;
35312;SDS011;21425;50.454;30.466;2023-06-26T08:45:09;3.42;;;2.20;;
35312;SDS011;21425;50.454;30.466;2023-06-26T08:47:35;3.30;;;2.00;;
35312;SDS011;21425;50.454;30.466;2023-06-26T08:52:51;2.13;;;1.58;;
35312;SDS011;21425;50.454;30.466;2023-06-26T08:55:24;1.85;;;1.40;;
35312;SDS011;21425;50.454;30.466;2023-06-26T08:57:52;2.17;;;1.60;;
35312;SDS011;21425;50.454;30.466;2023-06-26T09:00:21;2.75;;;1.52;;
35312;SDS011;21425;50.454;30.466;2023-06-26T09:02:47;2.83;;;1.77;;
35312;SDS011;21425;50.454;30.466;2023-06-26T09:05:13;2.50;;;1.45;;
35312;SDS011;21425;50.454;30.466;2023-06-26T09:07:38;2.15;;;1.30;;
35312;SDS011;21425;50.454;30.466;2023-06-26T09:10:05;1.80;;;1.45;;
35312;SDS011;21425;50.454;30.466;2023-06-26T09:12:31;2.03;;;1.50;;
35312;SDS011;21425;50.454;30.466;2023-06-26T09:14:57;2.00;;;1.27;;
35312;SDS011;21425;50.454;30.466;2023-06-26T09:17:24;1.48;;;1.13;;
35312;SDS011;21425;50.454;30.466;2023-06-26T09:19:51;1.27;;;1.00;;
35312;SDS011;21425;50.454;30.466;2023-06-26T09:22:17;1.77;;;1.23;;
35312;SDS011;21425;50.454;30.466;2023-06-26T09:24:43;1.35;;;1.15;;
35312;SDS011;21425;50.454;30.466;2023-06-26T09:27:09;2.25;;;1.20;;
35312;SDS011;21425;50.454;30.466;2023-06-26T09:29:35;1.70;;;0.98;;
35312;SDS011;21425;50.454;30.466;2023-06-26T09:32:01;2.30;;;1.45;;
35312;SDS011;21425;50.454;30.466;2023-06-26T09:34:31;0.95;;;0.80;;
35312;SDS011;21425;50.454;30.466;2023-06-26T09:36:57;2.53;;;1.42;;
35312;SDS011;21425;50.454;30.466;2023-06-26T09:39:24;1.83;;;1.10;;
35312;SDS011;21425;50.454;30.466;2023-06-26T09:41:50;1.63;;;1.30;;
35312;SDS011;21425;50.454;30.466;2023-06-26T09:44:16;3.65;;;1.13;;
35312;SDS011;21425;50.454;30.466;2023-06-26T09:46:44;2.00;;;1.25;;
35312;SDS011;21425;50.454;30.466;2023-06-26T09:49:11;3.78;;;1.55;;
35312;SDS011;21425;50.454;30.466;2023-06-26T09:51:37;1.88;;;1.38;;
35312;SDS011;21425;50.454;30.466;2023-06-26T09:54:04;2.15;;;1.40;;
35312;SDS011;21425;50.454;30.466;2023-06-26T09:56:31;2.05;;;1.17;;
35312;SDS011;21425;50.454;30.466;2023-06-26T09:58:58;1.65;;;1.10;;
35312;SDS011;21425;50.454;30.466;2023-06-26T10:01:26;1.83;;;1.15;;
35312;SDS011;21425;50.454;30.466;2023-06-26T10:03:53;1.88;;;1.30;;
35312;SDS011;21425;50.454;30.466;2023-06-26T10:06:21;2.55;;;1.30;;
35312;SDS011;21425;50.454;30.466;2023-06-26T10:08:58;2.03;;;1.25;;
35312;SDS011;21425;50.454;30.466;2023-06-26T10:11:25;2.13;;;1.48;;
35312;SDS011;21425;50.454;30.466;2023-06-26T10:14:06;2.13;;;1.35;;
35312;SDS011;21425;50.454;30.466;2023-06-26T10:16:33;2.13;;;1.60;;
35312;SDS011;21425;50.454;30.466;2023-06-26T10:19:02;2.28;;;1.60;;
35312;SDS011;21425;50.454;30.466;2023-06-26T10:21:29;2.70;;;1.52;;
35312;SDS011;21425;50.454;30.466;2023-06-26T10:23:56;2.38;;;1.63;;
35312;SDS011;21425;50.454;30.466;2023-06-26T10:26:22;1.83;;;1.40;;
35312;SDS011;21425;50.454;30.466;2023-06-26T10:28:50;2.80;;;1.70;;
35312;SDS011;21425;50.454;30.466;2023-06-26T10:31:17;1.98;;;1.35;;
35312;SDS011;21425;50.454;30.466;2023-06-26T10:33:49;4.78;;;1.55;;
35312;SDS011;21425;50.454;30.466;2023-06-26T10:36:16;3.53;;;1.50;;
35312;SDS011;21425;50.454;30.466;2023-06-26T10:41:19;2.90;;;1.70;;
35312;SDS011;21425;50.454;30.466;2023-06-26T10:43:48;2.13;;;1.33;;
35312;SDS011;21425;50.454;30.466;2023-06-26T10:46:18;2.38;;;1.63;;
35312;SDS011;21425;50.454;30.466;2023-06-26T10:48:58;1.98;;;1.23;;
35312;SDS011;21425;50.454;30.466;2023-06-26T10:51:25;2.60;;;1.58;;
35312;SDS011;21425;50.454;30.466;2023-06-26T10:53:55;4.82;;;1.70;;
35312;SDS011;21425;50.454;30.466;2023-06-26T10:56:21;2.45;;;1.63;;
35312;SDS011;21425;50.454;30.466;2023-06-26T10:58:47;2.00;;;1.42;;
35312;SDS011;21425;50.454;30.466;2023-06-26T11:01:23;2.80;;;1.63;;
35312;SDS011;21425;50.454;30.466;2023-06-26T11:06:24;2.40;;;1.55;;
35312;SDS011;21425;50.454;30.466;2023-06-26T11:08:51;2.13;;;1.63;;
35312;SDS011;21425;50.454;30.466;2023-06-26T11:11:18;3.05;;;1.92;;
35312;SDS011;21425;50.454;30.466;2023-06-26T11:13:45;3.85;;;1.60;;
35312;SDS011;21425;50.454;30.466;2023-06-26T11:16:12;2.75;;;1.80;;
35312;SDS011;21425;50.454;30.466;2023-06-26T11:18:39;2.65;;;1.67;;
35312;SDS011;21425;50.454;30.466;2023-06-26T11:23:31;2.42;;;1.45;;
35312;SDS011;21425;50.454;30.466;2023-06-26T11:26:11;2.50;;;1.55;;
35312;SDS011;21425;50.454;30.466;2023-06-26T11:28:38;5.78;;;1.88;;
35312;SDS011;21425;50.454;30.466;2023-06-26T11:31:04;2.35;;;1.50;;
35312;SDS011;21425;50.454;30.466;2023-06-26T11:33:30;3.13;;;1.70;;
35312;SDS011;21425;50.454;30.466;2023-06-26T11:36:07;1.58;;;1.35;;
35312;SDS011;21425;50.454;30.466;2023-06-26T11:38:37;2.15;;;1.38;;
35312;SDS011;21425;50.454;30.466;2023-06-26T11:41:03;1.83;;;1.50;;
35312;SDS011;21425;50.454;30.466;2023-06-26T11:43:33;2.47;;;1.25;;
35312;SDS011;21425;50.454;30.466;2023-06-26T11:46:00;2.17;;;1.42;;
35312;SDS011;21425;50.454;30.466;2023-06-26T11:48:26;3.58;;;1.30;;
35312;SDS011;21425;50.454;30.466;2023-06-26T11:50:52;2.33;;;1.50;;
35312;SDS011;21425;50.454;30.466;2023-06-26T11:53:18;2.03;;;1.55;;
35312;SDS011;21425;50.454;30.466;2023-06-26T11:55:44;1.50;;;1.13;;
35312;SDS011;21425;50.454;30.466;2023-06-26T11:58:10;2.17;;;1.67;;
35312;SDS011;21425;50.454;30.466;2023-06-26T12:00:41;2.58;;;1.50;;
35312;SDS011;21425;50.454;30.466;2023-06-26T12:03:07;1.90;;;1.30;;
35312;SDS011;21425;50.454;30.466;2023-06-26T12:05:33;2.00;;;1.45;;
35312;SDS011;21425;50.454;30.466;2023-06-26T12:07:59;1.83;;;1.40;;
35312;SDS011;21425;50.454;30.466;2023-06-26T12:10:26;2.22;;;1.35;;
35312;SDS011;21425;50.454;30.466;2023-06-26T12:12:53;1.95;;;1.50;;
35312;SDS011;21425;50.454;30.466;2023-06-26T12:15:18;1.77;;;1.20;;
35312;SDS011;21425;50.454;30.466;2023-06-26T12:17:44;2.08;;;1.50;;
35312;SDS011;21425;50.454;30.466;2023-06-26T12:20:20;2.38;;;1.70;;
35312;SDS011;21425;50.454;30.466;2023-06-26T12:22:47;5.00;;;2.10;;
35312;SDS011;21425;50.454;30.466;2023-06-26T12:25:20;3.83;;;2.25;;
35312;SDS011;21425;50.454;30.466;2023-06-26T12:27:46;6.80;;;2.08;;
35312;SDS011;21425;50.454;30.466;2023-06-26T12:30:12;2.25;;;1.70;;
35312;SDS011;21425;50.454;30.466;2023-06-26T12:32:39;2.28;;;1.80;;
35312;SDS011;21425;50.454;30.466;2023-06-26T12:35:05;2.80;;;2.03;;
35312;SDS011;21425;50.454;30.466;2023-06-26T12:37:35;7.00;;;2.05;;
35312;SDS011;21425;50.454;30.466;2023-06-26T12:40:03;3.63;;;1.98;;
35312;SDS011;21425;50.454;30.466;2023-06-26T12:42:32;4.97;;;2.13;;
35312;SDS011;21425;50.454;30.466;2023-06-26T12:44:59;5.55;;;2.22;;
35312;SDS011;21425;50.454;30.466;2023-06-26T12:47:35;2.42;;;1.70;;
35312;SDS011;21425;50.454;30.466;2023-06-26T12:50:04;3.95;;;1.60;;
35312;SDS011;21425;50.454;30.466;2023-06-26T12:52:31;2.17;;;1.70;;
35312;SDS011;21425;50.454;30.466;2023-06-26T12:54:56;2.33;;;1.80;;
35312;SDS011;21425;50.454;30.466;2023-06-26T12:57:22;7.07;;;1.85;;
35312;SDS011;21425;50.454;30.466;2023-06-26T12:59:48;2.28;;;1.70;;
35312;SDS011;21425;50.454;30.466;2023-06-26T13:02:14;2.30;;;1.70;;
35312;SDS011;21425;50.454;30.466;2023-06-26T13:04:40;2.72;;;2.00;;
35312;SDS011;21425;50.454;30.466;2023-06-26T13:07:09;4.25;;;2.10;;
35312;SDS011;21425;50.454;30.466;2023-06-26T13:09:35;3.20;;;2.15;;
35312;SDS011;21425;50.454;30.466;2023-06-26T13:12:02;2.88;;;1.95;;
35312;SDS011;21425;50.454;30.466;2023-06-26T13:14:31;3.70;;;2.13;;
35312;SDS011;21425;50.454;30.466;2023-06-26T13:16:57;4.93;;;2.00;;
35312;SDS011;21425;50.454;30.466;2023-06-26T13:19:23;2.70;;;1.80;;
35312;SDS011;21425;50.454;30.466;2023-06-26T13:21:49;3.17;;;1.85;;
35312;SDS011;21425;50.454;30.466;2023-06-26T13:24:15;3.53;;;1.77;;
35312;SDS011;21425;50.454;30.466;2023-06-26T13:26:41;2.75;;;1.75;;
35312;SDS011;21425;50.454;30.466;2023-06-26T13:29:07;6.40;;;1.48;;
35312;SDS011;21425;50.454;30.466;2023-06-26T13:31:32;3.10;;;1.77;;
35312;SDS011;21425;50.454;30.466;2023-06-26T13:33:58;3.13;;;1.85;;
35312;SDS011;21425;50.454;30.466;2023-06-26T13:36:24;2.35;;;1.60;;
35312;SDS011;21425;50.454;30.466;2023-06-26T13:38:51;2.42;;;1.50;;
35312;SDS011;21425;50.454;30.466;2023-06-26T13:41:23;2.78;;;1.70;;
35312;SDS011;21425;50.454;30.466;2023-06-26T13:43:49;1.95;;;1.40;;
35312;SDS011;21425;50.454;30.466;2023-06-26T13:46:16;4.80;;;1.50;;
35312;SDS011;21425;50.454;30.466;2023-06-26T13:48:42;3.17;;;1.88;;
35312;SDS011;21425;50.454;30.466;2023-06-26T13:51:11;2.65;;;1.67;;
35312;SDS011;21425;50.454;30.466;2023-06-26T13:53:37;3.08;;;1.77;;
35312;SDS011;21425;50.454;30.466;2023-06-26T13:56:03;2.22;;;1.65;;
35312;SDS011;21425;50.454;30.466;2023-06-26T13:58:29;3.03;;;1.55;;
35312;SDS011;21425;50.454;30.466;2023-06-26T14:00:57;3.15;;;2.00;;
35312;SDS011;21425;50.454;30.466;2023-06-26T14:03:23;3.30;;;1.92;;
35312;SDS011;21425;50.454;30.466;2023-06-26T14:05:49;2.95;;;1.60;;
35312;SDS011;21425;50.454;30.466;2023-06-26T14:08:15;2.40;;;1.88;;
35312;SDS011;21425;50.454;30.466;2023-06-26T14:10:41;3.33;;;1.83;;
35312;SDS011;21425;50.454;30.466;2023-06-26T14:13:07;2.00;;;1.50;;
35312;SDS011;21425;50.454;30.466;2023-06-26T14:15:34;2.40;;;1.67;;
35312;SDS011;21425;50.454;30.466;2023-06-26T14:18:00;2.35;;;1.83;;
35312;SDS011;21425;50.454;30.466;2023-06-26T14:20:27;2.30;;;1.70;;
35312;SDS011;21425;50.454;30.466;2023-06-26T14:22:54;5.25;;;1.63;;
35312;SDS011;21425;50.454;30.466;2023-06-26T14:25:20;2.45;;;1.40;;
35312;SDS011;21425;50.454;30.466;2023-06-26T14:27:45;2.70;;;1.95;;
35312;SDS011;21425;50.454;30.466;2023-06-26T14:30:11;2.42;;;1.98;;
35312;SDS011;21425;50.454;30.466;2023-06-26T14:32:37;2.63;;;2.10;;
35312;SDS011;21425;50.454;30.466;2023-06-26T14:35:03;4.22;;;2.17;;
35312;SDS011;21425;50.454;30.466;2023-06-26T14:37:30;2.20;;;1.63;;
35312;SDS011;21425;50.454;30.466;2023-06-26T14:39:56;2.70;;;1.77;;